sensor_id;sensor_type;location;lat;lon;timestamp;P1;durP1;ratioP1;P2;durP2;ratioP2
14292;SDS011;62290;59.420;17.842;2022-07-25T00:00:07;0.85;;;0.70;;
14292;SDS011;62290;59.420;17.842;2022-07-25T00:02:36;1.00;;;0.90;;
14292;SDS011;62290;59.420;17.842;2022-07-25T00:05:05;1.42;;;0.77;;
14292;SDS011;62290;59.420;17.842;2022-07-25T00:07:33;1.08;;;0.80;;
14292;SDS011;62290;59.420;17.842;2022-07-25T00:10:02;0.70;;;0.70;;
14292;SDS011;62290;59.420;17.842;2022-07-25T00:12:30;0.95;;;0.77;;
14292;SDS011;62290;59.420;17.842;2022-07-25T00:15:00;0.98;;;0.60;;
14292;SDS011;62290;59.420;17.842;2022-07-25T00:17:28;2.22;;;0.90;;
14292;SDS011;62290;59.420;17.842;2022-07-25T00:19:56;1.15;;;0.82;;
14292;SDS011;62290;59.420;17.842;2022-07-25T00:22:24;0.77;;;0.60;;
14292;SDS011;62290;59.420;17.842;2022-07-25T00:24:52;2.40;;;0.80;;
14292;SDS011;62290;59.420;17.842;2022-07-25T00:27:20;0.70;;;0.70;;
14292;SDS011;62290;59.420;17.842;2022-07-25T00:29:48;1.20;;;1.00;;
14292;SDS011;62290;59.420;17.842;2022-07-25T00:32:18;0.40;;;0.40;;
14292;SDS011;62290;59.420;17.842;2022-07-25T00:34:46;1.15;;;0.80;;
14292;SDS011;62290;59.420;17.842;2022-07-25T00:37:14;0.60;;;0.60;;
14292;SDS011;62290;59.420;17.842;2022-07-25T00:39:42;1.05;;;0.73;;
14292;SDS011;62290;59.420;17.842;2022-07-25T00:42:10;0.73;;;0.60;;
14292;SDS011;62290;59.420;17.842;2022-07-25T00:44:38;0.70;;;0.70;;
14292;SDS011;62290;59.420;17.842;2022-07-25T00:47:06;1.10;;;0.70;;
14292;SDS011;62290;59.420;17.842;2022-07-25T00:49:35;0.77;;;0.77;;
14292;SDS011;62290;59.420;17.842;2022-07-25T00:52:04;0.82;;;0.70;;
14292;SDS011;62290;59.420;17.842;2022-07-25T00:54:32;0.88;;;0.70;;
14292;SDS011;62290;59.420;17.842;2022-07-25T00:57:00;0.80;;;0.70;;
14292;SDS011;62290;59.420;17.842;2022-07-25T00:59:28;1.00;;;0.90;;
14292;SDS011;62290;59.420;17.842;2022-07-25T01:01:56;0.70;;;0.70;;
14292;SDS011;62290;59.420;17.842;2022-07-25T01:04:29;0.50;;;0.50;;
14292;SDS011;62290;59.420;17.842;2022-07-25T01:06:58;1.02;;;0.90;;
14292;SDS011;62290;59.420;17.842;2022-07-25T01:09:26;1.63;;;0.75;;
14292;SDS011;62290;59.420;17.842;2022-07-25T01:11:55;0.95;;;0.70;;
14292;SDS011;62290;59.420;17.842;2022-07-25T01:14:23;0.75;;;0.70;;
14292;SDS011;62290;59.420;17.842;2022-07-25T01:16:51;0.90;;;0.80;;
14292;SDS011;62290;59.420;17.842;2022-07-25T01:19:19;0.98;;;0.90;;
14292;SDS011;62290;59.420;17.842;2022-07-25T01:21:48;0.70;;;0.70;;
14292;SDS011;62290;59.420;17.842;2022-07-25T01:24:16;0.85;;;0.70;;
14292;SDS011;62290;59.420;17.842;2022-07-25T01:26:44;0.60;;;0.60;;
14292;SDS011;62290;59.420;17.842;2022-07-25T01:29:12;0.60;;;0.60;;
14292;SDS011;62290;59.420;17.842;2022-07-25T01:31:40;0.60;;;0.60;;
14292;SDS011;62290;59.420;17.842;2022-07-25T01:34:08;0.75;;;0.75;;
14292;SDS011;62290;59.420;17.842;2022-07-25T01:36:36;0.57;;;0.57;;
14292;SDS011;62290;59.420;17.842;2022-07-25T01:39:06;1.27;;;0.90;;
14292;SDS011;62290;59.420;17.842;2022-07-25T01:41:34;0.77;;;0.68;;
14292;SDS011;62290;59.420;17.842;2022-07-25T01:44:02;0.57;;;0.57;;
14292;SDS011;62290;59.420;17.842;2022-07-25T01:46:31;0.70;;;0.70;;
14292;SDS011;62290;59.420;17.842;2022-07-25T01:49:00;0.63;;;0.63;;
14292;SDS011;62290;59.420;17.842;2022-07-25T01:51:28;0.70;;;0.70;;
14292;SDS011;62290;59.420;17.842;2022-07-25T01:53:56;1.25;;;0.90;;
14292;SDS011;62290;59.420;17.842;2022-07-25T01:56:26;0.82;;;0.80;;
14292;SDS011;62290;59.420;17.842;2022-07-25T01:58:57;1.38;;;0.73;;
14292;SDS011;62290;59.420;17.842;2022-07-25T02:01:25;1.30;;;0.90;;
14292;SDS011;62290;59.420;17.842;2022-07-25T02:03:53;1.02;;;0.63;;
14292;SDS011;62290;59.420;17.842;2022-07-25T02:06:21;0.90;;;0.80;;
14292;SDS011;62290;59.420;17.842;2022-07-25T02:08:49;0.80;;;0.80;;
14292;SDS011;62290;59.420;17.842;2022-07-25T02:11:17;1.77;;;0.75;;
14292;SDS011;62290;59.420;17.842;2022-07-25T02:13:47;2.63;;;0.85;;
14292;SDS011;62290;59.420;17.842;2022-07-25T02:16:15;1.50;;;0.68;;
14292;SDS011;62290;59.420;17.842;2022-07-25T02:18:43;0.70;;;0.70;;
14292;SDS011;62290;59.420;17.842;2022-07-25T02:21:13;0.60;;;0.60;;
14292;SDS011;62290;59.420;17.842;2022-07-25T02:23:41;1.08;;;0.90;;
14292;SDS011;62290;59.420;17.842;2022-07-25T02:26:10;1.83;;;1.17;;
14292;SDS011;62290;59.420;17.842;2022-07-25T02:28:38;0.82;;;0.80;;
14292;SDS011;62290;59.420;17.842;2022-07-25T02:31:08;0.70;;;0.63;;
14292;SDS011;62290;59.420;17.842;2022-07-25T02:33:36;0.80;;;0.80;;
14292;SDS011;62290;59.420;17.842;2022-07-25T02:36:05;0.82;;;0.82;;
14292;SDS011;62290;59.420;17.842;2022-07-25T02:38:33;1.10;;;1.00;;
14292;SDS011;62290;59.420;17.842;2022-07-25T02:41:03;0.70;;;0.70;;
14292;SDS011;62290;59.420;17.842;2022-07-25T02:43:31;0.80;;;0.80;;
14292;SDS011;62290;59.420;17.842;2022-07-25T02:45:59;0.70;;;0.70;;
14292;SDS011;62290;59.420;17.842;2022-07-25T02:48:28;0.95;;;0.85;;
14292;SDS011;62290;59.420;17.842;2022-07-25T02:50:57;0.80;;;0.75;;
14292;SDS011;62290;59.420;17.842;2022-07-25T02:53:25;0.90;;;0.80;;
14292;SDS011;62290;59.420;17.842;2022-07-25T02:56:13;0.90;;;0.88;;
14292;SDS011;62290;59.420;17.842;2022-07-25T02:58:41;1.38;;;0.88;;
14292;SDS011;62290;59.420;17.842;2022-07-25T03:01:09;1.38;;;0.90;;
14292;SDS011;62290;59.420;17.842;2022-07-25T03:03:39;0.73;;;0.70;;
14292;SDS011;62290;59.420;17.842;2022-07-25T03:06:07;0.52;;;0.52;;
14292;SDS011;62290;59.420;17.842;2022-07-25T03:08:35;0.75;;;0.70;;
14292;SDS011;62290;59.420;17.842;2022-07-25T03:11:03;1.17;;;0.90;;
14292;SDS011;62290;59.420;17.842;2022-07-25T03:13:32;1.10;;;0.90;;
14292;SDS011;62290;59.420;17.842;2022-07-25T03:16:00;1.45;;;0.95;;
14292;SDS011;62290;59.420;17.842;2022-07-25T03:18:28;1.00;;;0.70;;
14292;SDS011;62290;59.420;17.842;2022-07-25T03:20:58;0.63;;;0.60;;
14292;SDS011;62290;59.420;17.842;2022-07-25T03:23:26;0.95;;;0.88;;
14292;SDS011;62290;59.420;17.842;2022-07-25T03:25:55;0.75;;;0.75;;
14292;SDS011;62290;59.420;17.842;2022-07-25T03:28:23;0.80;;;0.80;;
14292;SDS011;62290;59.420;17.842;2022-07-25T03:30:52;0.95;;;0.90;;
14292;SDS011;62290;59.420;17.842;2022-07-25T03:33:21;1.08;;;1.00;;
14292;SDS011;62290;59.420;17.842;2022-07-25T03:35:49;0.80;;;0.80;;
14292;SDS011;62290;59.420;17.842;2022-07-25T03:38:18;1.10;;;1.00;;
14292;SDS011;62290;59.420;17.842;2022-07-25T03:40:46;1.27;;;0.85;;
14292;SDS011;62290;59.420;17.842;2022-07-25T03:43:14;0.88;;;0.77;;
14292;SDS011;62290;59.420;17.842;2022-07-25T03:45:42;0.77;;;0.70;;
14292;SDS011;62290;59.420;17.842;2022-07-25T03:48:11;1.08;;;0.98;;
14292;SDS011;62290;59.420;17.842;2022-07-25T03:50:39;2.08;;;0.80;;
14292;SDS011;62290;59.420;17.842;2022-07-25T03:53:07;3.53;;;0.90;;
14292;SDS011;62290;59.420;17.842;2022-07-25T03:55:37;1.60;;;1.02;;
14292;SDS011;62290;59.420;17.842;2022-07-25T03:58:06;0.70;;;0.70;;
14292;SDS011;62290;59.420;17.842;2022-07-25T04:00:34;1.23;;;0.75;;
14292;SDS011;62290;59.420;17.842;2022-07-25T04:03:02;0.95;;;0.95;;
14292;SDS011;62290;59.420;17.842;2022-07-25T04:05:30;1.23;;;0.90;;
14292;SDS011;62290;59.420;17.842;2022-07-25T04:07:58;0.80;;;0.80;;
14292;SDS011;62290;59.420;17.842;2022-07-25T04:10:26;1.15;;;0.95;;
14292;SDS011;62290;59.420;17.842;2022-07-25T04:12:55;0.90;;;0.90;;
14292;SDS011;62290;59.420;17.842;2022-07-25T04:15:24;0.80;;;0.80;;
14292;SDS011;62290;59.420;17.842;2022-07-25T04:17:52;0.88;;;0.88;;
14292;SDS011;62290;59.420;17.842;2022-07-25T04:20:20;1.42;;;0.90;;
14292;SDS011;62290;59.420;17.842;2022-07-25T04:22:50;0.93;;;0.70;;
14292;SDS011;62290;59.420;17.842;2022-07-25T04:25:18;1.00;;;0.90;;
14292;SDS011;62290;59.420;17.842;2022-07-25T04:27:46;1.27;;;0.90;;
14292;SDS011;62290;59.420;17.842;2022-07-25T04:30:15;1.08;;;0.82;;
14292;SDS011;62290;59.420;17.842;2022-07-25T04:32:49;0.70;;;0.70;;
14292;SDS011;62290;59.420;17.842;2022-07-25T04:35:17;1.20;;;1.05;;
14292;SDS011;62290;59.420;17.842;2022-07-25T04:37:45;1.10;;;1.00;;
14292;SDS011;62290;59.420;17.842;2022-07-25T04:40:13;0.98;;;0.88;;
14292;SDS011;62290;59.420;17.842;2022-07-25T04:42:41;1.00;;;0.90;;
14292;SDS011;62290;59.420;17.842;2022-07-25T04:45:10;1.00;;;0.90;;
14292;SDS011;62290;59.420;17.842;2022-07-25T04:47:39;0.80;;;0.80;;
14292;SDS011;62290;59.420;17.842;2022-07-25T04:50:07;1.02;;;0.90;;
14292;SDS011;62290;59.420;17.842;2022-07-25T04:52:36;0.93;;;0.93;;
14292;SDS011;62290;59.420;17.842;2022-07-25T04:55:05;1.08;;;0.98;;
14292;SDS011;62290;59.420;17.842;2022-07-25T04:57:33;1.60;;;0.95;;
14292;SDS011;62290;59.420;17.842;2022-07-25T05:00:02;1.40;;;1.05;;
14292;SDS011;62290;59.420;17.842;2022-07-25T05:02:30;1.25;;;1.15;;
14292;SDS011;62290;59.420;17.842;2022-07-25T05:05:00;1.17;;;1.08;;
14292;SDS011;62290;59.420;17.842;2022-07-25T05:07:28;0.88;;;0.85;;
14292;SDS011;62290;59.420;17.842;2022-07-25T05:09:56;0.90;;;0.90;;
14292;SDS011;62290;59.420;17.842;2022-07-25T05:12:24;1.00;;;0.90;;
14292;SDS011;62290;59.420;17.842;2022-07-25T05:14:52;2.03;;;1.10;;
14292;SDS011;62290;59.420;17.842;2022-07-25T05:17:20;1.73;;;1.00;;
14292;SDS011;62290;59.420;17.842;2022-07-25T05:19:48;1.20;;;1.00;;
14292;SDS011;62290;59.420;17.842;2022-07-25T05:22:18;0.95;;;0.93;;
14292;SDS011;62290;59.420;17.842;2022-07-25T05:24:53;1.25;;;1.15;;
14292;SDS011;62290;59.420;17.842;2022-07-25T05:27:21;1.00;;;0.90;;
14292;SDS011;62290;59.420;17.842;2022-07-25T05:29:49;1.73;;;1.10;;
14292;SDS011;62290;59.420;17.842;2022-07-25T05:32:17;1.10;;;1.00;;
14292;SDS011;62290;59.420;17.842;2022-07-25T05:34:46;1.30;;;0.85;;
14292;SDS011;62290;59.420;17.842;2022-07-25T05:37:13;0.90;;;0.90;;
14292;SDS011;62290;59.420;17.842;2022-07-25T05:39:44;0.90;;;0.90;;
14292;SDS011;62290;59.420;17.842;2022-07-25T05:42:12;1.10;;;1.00;;
14292;SDS011;62290;59.420;17.842;2022-07-25T05:44:40;1.25;;;1.15;;
14292;SDS011;62290;59.420;17.842;2022-07-25T05:47:08;1.38;;;1.10;;
14292;SDS011;62290;59.420;17.842;2022-07-25T05:49:37;3.03;;;1.30;;
14292;SDS011;62290;59.420;17.842;2022-07-25T05:52:05;1.70;;;1.20;;
14292;SDS011;62290;59.420;17.842;2022-07-25T05:54:38;1.88;;;1.35;;
14292;SDS011;62290;59.420;17.842;2022-07-25T05:57:08;1.20;;;0.85;;
14292;SDS011;62290;59.420;17.842;2022-07-25T05:59:36;1.30;;;1.20;;
14292;SDS011;62290;59.420;17.842;2022-07-25T06:02:04;1.15;;;1.05;;
14292;SDS011;62290;59.420;17.842;2022-07-25T06:04:32;1.02;;;0.80;;
14292;SDS011;62290;59.420;17.842;2022-07-25T06:07:00;1.05;;;1.00;;
14292;SDS011;62290;59.420;17.842;2022-07-25T06:09:28;1.48;;;0.93;;
14292;SDS011;62290;59.420;17.842;2022-07-25T06:11:57;1.58;;;1.13;;
14292;SDS011;62290;59.420;17.842;2022-07-25T06:14:28;1.17;;;1.02;;
14292;SDS011;62290;59.420;17.842;2022-07-25T06:16:56;1.10;;;1.00;;
14292;SDS011;62290;59.420;17.842;2022-07-25T06:19:24;1.33;;;1.23;;
14292;SDS011;62290;59.420;17.842;2022-07-25T06:21:52;1.70;;;1.20;;
14292;SDS011;62290;59.420;17.842;2022-07-25T06:24:20;3.92;;;1.20;;
14292;SDS011;62290;59.420;17.842;2022-07-25T06:26:48;1.05;;;0.93;;
14292;SDS011;62290;59.420;17.842;2022-07-25T06:29:16;0.80;;;0.80;;
14292;SDS011;62290;59.420;17.842;2022-07-25T06:31:46;1.02;;;0.90;;
14292;SDS011;62290;59.420;17.842;2022-07-25T06:34:14;1.83;;;1.20;;
14292;SDS011;62290;59.420;17.842;2022-07-25T06:36:42;1.00;;;1.00;;
14292;SDS011;62290;59.420;17.842;2022-07-25T06:39:10;1.90;;;1.13;;
14292;SDS011;62290;59.420;17.842;2022-07-25T06:41:38;1.08;;;0.90;;
14292;SDS011;62290;59.420;17.842;2022-07-25T06:44:06;1.13;;;0.95;;
14292;SDS011;62290;59.420;17.842;2022-07-25T06:46:35;1.20;;;1.10;;
14292;SDS011;62290;59.420;17.842;2022-07-25T06:49:04;2.47;;;1.13;;
14292;SDS011;62290;59.420;17.842;2022-07-25T06:51:33;1.02;;;1.00;;
14292;SDS011;62290;59.420;17.842;2022-07-25T06:54:01;1.90;;;1.10;;
14292;SDS011;62290;59.420;17.842;2022-07-25T06:56:30;1.27;;;1.00;;
14292;SDS011;62290;59.420;17.842;2022-07-25T06:58:58;1.30;;;1.02;;
14292;SDS011;62290;59.420;17.842;2022-07-25T07:01:26;1.48;;;1.27;;
14292;SDS011;62290;59.420;17.842;2022-07-25T07:03:55;1.10;;;1.00;;
14292;SDS011;62290;59.420;17.842;2022-07-25T07:06:25;1.63;;;1.25;;
14292;SDS011;62290;59.420;17.842;2022-07-25T07:08:53;1.88;;;1.38;;
14292;SDS011;62290;59.420;17.842;2022-07-25T07:11:21;2.08;;;1.40;;
14292;SDS011;62290;59.420;17.842;2022-07-25T07:13:49;0.88;;;0.88;;
14292;SDS011;62290;59.420;17.842;2022-07-25T07:16:17;1.17;;;1.05;;
14292;SDS011;62290;59.420;17.842;2022-07-25T07:18:46;1.38;;;1.10;;
14292;SDS011;62290;59.420;17.842;2022-07-25T07:21:15;1.95;;;1.08;;
14292;SDS011;62290;59.420;17.842;2022-07-25T07:23:48;1.15;;;1.05;;
14292;SDS011;62290;59.420;17.842;2022-07-25T07:26:19;0.82;;;0.82;;
14292;SDS011;62290;59.420;17.842;2022-07-25T07:28:47;1.33;;;1.20;;
14292;SDS011;62290;59.420;17.842;2022-07-25T07:31:15;1.20;;;1.10;;
14292;SDS011;62290;59.420;17.842;2022-07-25T07:33:44;0.88;;;0.88;;
14292;SDS011;62290;59.420;17.842;2022-07-25T07:36:12;1.45;;;1.10;;
14292;SDS011;62290;59.420;17.842;2022-07-25T07:38:41;1.33;;;1.20;;
14292;SDS011;62290;59.420;17.842;2022-07-25T07:41:11;1.23;;;1.05;;
14292;SDS011;62290;59.420;17.842;2022-07-25T07:43:39;1.45;;;1.10;;
14292;SDS011;62290;59.420;17.842;2022-07-25T07:46:07;1.65;;;1.15;;
14292;SDS011;62290;59.420;17.842;2022-07-25T07:48:35;1.42;;;1.30;;
14292;SDS011;62290;59.420;17.842;2022-07-25T07:51:04;1.45;;;1.25;;
14292;SDS011;62290;59.420;17.842;2022-07-25T07:53:32;1.40;;;1.17;;
14292;SDS011;62290;59.420;17.842;2022-07-25T07:56:19;1.55;;;1.10;;
14292;SDS011;62290;59.420;17.842;2022-07-25T07:58:47;1.58;;;1.00;;
14292;SDS011;62290;59.420;17.842;2022-07-25T08:01:15;1.30;;;1.20;;
14292;SDS011;62290;59.420;17.842;2022-07-25T08:03:44;1.85;;;1.30;;
14292;SDS011;62290;59.420;17.842;2022-07-25T08:06:12;1.10;;;1.00;;
14292;SDS011;62290;59.420;17.842;2022-07-25T08:08:40;2.20;;;1.38;;
14292;SDS011;62290;59.420;17.842;2022-07-25T08:11:08;3.17;;;1.38;;
14292;SDS011;62290;59.420;17.842;2022-07-25T08:13:37;1.40;;;1.30;;
14292;SDS011;62290;59.420;17.842;2022-07-25T08:16:05;2.83;;;1.33;;
14292;SDS011;62290;59.420;17.842;2022-07-25T08:18:34;1.95;;;1.23;;
14292;SDS011;62290;59.420;17.842;2022-07-25T08:21:02;1.52;;;1.23;;
14292;SDS011;62290;59.420;17.842;2022-07-25T08:23:31;1.70;;;1.45;;
14292;SDS011;62290;59.420;17.842;2022-07-25T08:26:00;1.40;;;1.30;;
14292;SDS011;62290;59.420;17.842;2022-07-25T08:28:29;1.00;;;0.93;;
14292;SDS011;62290;59.420;17.842;2022-07-25T08:30:59;1.60;;;1.25;;
14292;SDS011;62290;59.420;17.842;2022-07-25T08:33:27;2.05;;;1.48;;
14292;SDS011;62290;59.420;17.842;2022-07-25T08:35:55;1.33;;;1.23;;
14292;SDS011;62290;59.420;17.842;2022-07-25T08:38:25;1.58;;;1.30;;
14292;SDS011;62290;59.420;17.842;2022-07-25T08:40:55;1.60;;;1.50;;
14292;SDS011;62290;59.420;17.842;2022-07-25T08:43:23;1.35;;;1.25;;
14292;SDS011;62290;59.420;17.842;2022-07-25T08:45:52;1.60;;;1.13;;
14292;SDS011;62290;59.420;17.842;2022-07-25T08:48:23;1.65;;;1.20;;
14292;SDS011;62290;59.420;17.842;2022-07-25T08:50:53;1.85;;;1.15;;
14292;SDS011;62290;59.420;17.842;2022-07-25T08:53:23;1.30;;;1.20;;
14292;SDS011;62290;59.420;17.842;2022-07-25T08:56:00;1.70;;;1.33;;
14292;SDS011;62290;59.420;17.842;2022-07-25T08:58:39;1.40;;;1.30;;
14292;SDS011;62290;59.420;17.842;2022-07-25T09:01:09;1.75;;;1.30;;
14292;SDS011;62290;59.420;17.842;2022-07-25T09:03:39;1.50;;;1.25;;
14292;SDS011;62290;59.420;17.842;2022-07-25T09:06:17;1.40;;;1.30;;
14292;SDS011;62290;59.420;17.842;2022-07-25T09:08:50;1.33;;;1.17;;
14292;SDS011;62290;59.420;17.842;2022-07-25T09:11:29;1.60;;;1.50;;
14292;SDS011;62290;59.420;17.842;2022-07-25T09:14:00;1.95;;;1.50;;
14292;SDS011;62290;59.420;17.842;2022-07-25T09:16:33;2.33;;;1.20;;
14292;SDS011;62290;59.420;17.842;2022-07-25T09:19:10;3.40;;;1.50;;
14292;SDS011;62290;59.420;17.842;2022-07-25T09:21:40;1.25;;;1.15;;
14292;SDS011;62290;59.420;17.842;2022-07-25T09:24:12;1.50;;;1.33;;
14292;SDS011;62290;59.420;17.842;2022-07-25T09:26:42;2.53;;;1.85;;
14292;SDS011;62290;59.420;17.842;2022-07-25T09:29:19;2.47;;;1.67;;
14292;SDS011;62290;59.420;17.842;2022-07-25T09:31:49;1.88;;;1.33;;
14292;SDS011;62290;59.420;17.842;2022-07-25T09:37:05;5.90;;;2.10;;
14292;SDS011;62290;59.420;17.842;2022-07-25T09:39:35;3.75;;;2.33;;
14292;SDS011;62290;59.420;17.842;2022-07-25T09:42:16;2.08;;;1.33;;
14292;SDS011;62290;59.420;17.842;2022-07-25T09:44:58;5.35;;;1.80;;
14292;SDS011;62290;59.420;17.842;2022-07-25T09:47:28;4.15;;;1.65;;
14292;SDS011;62290;59.420;17.842;2022-07-25T09:49:58;1.98;;;1.50;;
14292;SDS011;62290;59.420;17.842;2022-07-25T09:52:26;3.10;;;1.40;;
14292;SDS011;62290;59.420;17.842;2022-07-25T09:54:54;4.78;;;1.75;;
14292;SDS011;62290;59.420;17.842;2022-07-25T09:57:22;2.55;;;1.52;;
14292;SDS011;62290;59.420;17.842;2022-07-25T09:59:51;2.40;;;1.58;;
14292;SDS011;62290;59.420;17.842;2022-07-25T10:02:23;4.90;;;1.90;;
14292;SDS011;62290;59.420;17.842;2022-07-25T10:05:06;3.17;;;1.52;;
14292;SDS011;62290;59.420;17.842;2022-07-25T10:07:40;4.20;;;1.90;;
14292;SDS011;62290;59.420;17.842;2022-07-25T10:10:23;2.70;;;2.03;;
14292;SDS011;62290;59.420;17.842;2022-07-25T10:12:59;2.05;;;1.85;;
14292;SDS011;62290;59.420;17.842;2022-07-25T10:15:42;4.97;;;2.20;;
14292;SDS011;62290;59.420;17.842;2022-07-25T10:18:12;2.60;;;2.03;;
14292;SDS011;62290;59.420;17.842;2022-07-25T10:20:43;2.22;;;2.03;;
14292;SDS011;62290;59.420;17.842;2022-07-25T10:23:16;2.67;;;2.28;;
14292;SDS011;62290;59.420;17.842;2022-07-25T10:25:58;2.65;;;2.40;;
14292;SDS011;62290;59.420;17.842;2022-07-25T10:28:38;3.40;;;3.10;;
14292;SDS011;62290;59.420;17.842;2022-07-25T10:34:02;3.50;;;3.20;;
14292;SDS011;62290;59.420;17.842;2022-07-25T10:36:43;3.67;;;3.33;;
14292;SDS011;62290;59.420;17.842;2022-07-25T10:39:15;5.95;;;3.67;;
14292;SDS011;62290;59.420;17.842;2022-07-25T10:41:48;3.25;;;2.95;;
14292;SDS011;62290;59.420;17.842;2022-07-25T10:44:18;4.60;;;3.20;;
14292;SDS011;62290;59.420;17.842;2022-07-25T10:46:46;6.05;;;3.13;;
14292;SDS011;62290;59.420;17.842;2022-07-25T10:49:17;3.15;;;2.80;;
14292;SDS011;62290;59.420;17.842;2022-07-25T10:51:59;3.10;;;2.85;;
14292;SDS011;62290;59.420;17.842;2022-07-25T10:54:31;3.45;;;2.60;;
14292;SDS011;62290;59.420;17.842;2022-07-25T10:57:01;7.63;;;3.35;;
14292;SDS011;62290;59.420;17.842;2022-07-25T10:59:32;3.35;;;2.50;;
14292;SDS011;62290;59.420;17.842;2022-07-25T11:02:02;3.47;;;2.30;;
14292;SDS011;62290;59.420;17.842;2022-07-25T11:04:32;3.00;;;2.60;;
14292;SDS011;62290;59.420;17.842;2022-07-25T11:07:07;2.42;;;2.22;;
14292;SDS011;62290;59.420;17.842;2022-07-25T11:09:36;5.28;;;2.92;;
14292;SDS011;62290;59.420;17.842;2022-07-25T11:12:05;4.35;;;2.50;;
14292;SDS011;62290;59.420;17.842;2022-07-25T11:14:34;3.17;;;2.35;;
14292;SDS011;62290;59.420;17.842;2022-07-25T11:17:10;3.45;;;2.63;;
14292;SDS011;62290;59.420;17.842;2022-07-25T11:19:41;4.43;;;2.40;;
14292;SDS011;62290;59.420;17.842;2022-07-25T11:22:11;3.22;;;2.45;;
14292;SDS011;62290;59.420;17.842;2022-07-25T11:24:40;2.72;;;2.42;;
14292;SDS011;62290;59.420;17.842;2022-07-25T11:27:10;3.35;;;2.38;;
14292;SDS011;62290;59.420;17.842;2022-07-25T11:29:40;2.22;;;2.03;;
14292;SDS011;62290;59.420;17.842;2022-07-25T11:32:09;3.90;;;2.40;;
14292;SDS011;62290;59.420;17.842;2022-07-25T11:34:39;3.03;;;2.70;;
14292;SDS011;62290;59.420;17.842;2022-07-25T11:37:10;4.00;;;2.63;;
14292;SDS011;62290;59.420;17.842;2022-07-25T11:39:41;3.40;;;2.53;;
14292;SDS011;62290;59.420;17.842;2022-07-25T11:42:11;2.85;;;2.55;;
14292;SDS011;62290;59.420;17.842;2022-07-25T11:44:42;3.83;;;2.70;;
14292;SDS011;62290;59.420;17.842;2022-07-25T11:47:21;4.13;;;2.75;;
14292;SDS011;62290;59.420;17.842;2022-07-25T11:49:52;3.55;;;2.70;;
14292;SDS011;62290;59.420;17.842;2022-07-25T11:52:24;3.55;;;3.03;;
14292;SDS011;62290;59.420;17.842;2022-07-25T11:54:53;2.40;;;2.20;;
14292;SDS011;62290;59.420;17.842;2022-07-25T11:57:22;3.30;;;2.90;;
14292;SDS011;62290;59.420;17.842;2022-07-25T11:59:52;3.17;;;2.67;;
14292;SDS011;62290;59.420;17.842;2022-07-25T12:02:21;8.65;;;3.17;;
14292;SDS011;62290;59.420;17.842;2022-07-25T12:04:54;3.55;;;2.80;;
14292;SDS011;62290;59.420;17.842;2022-07-25T12:07:39;3.28;;;2.80;;
14292;SDS011;62290;59.420;17.842;2022-07-25T12:10:11;3.80;;;2.72;;
14292;SDS011;62290;59.420;17.842;2022-07-25T12:12:46;4.18;;;2.83;;
14292;SDS011;62290;59.420;17.842;2022-07-25T12:15:16;4.50;;;3.33;;
14292;SDS011;62290;59.420;17.842;2022-07-25T12:17:47;6.18;;;3.28;;
14292;SDS011;62290;59.420;17.842;2022-07-25T12:20:16;4.15;;;3.28;;
14292;SDS011;62290;59.420;17.842;2022-07-25T12:22:47;4.15;;;3.08;;
14292;SDS011;62290;59.420;17.842;2022-07-25T12:25:16;3.97;;;3.30;;
14292;SDS011;62290;59.420;17.842;2022-07-25T12:27:45;3.17;;;2.88;;
14292;SDS011;62290;59.420;17.842;2022-07-25T12:30:13;4.78;;;3.10;;
14292;SDS011;62290;59.420;17.842;2022-07-25T12:32:42;3.85;;;3.10;;
14292;SDS011;62290;59.420;17.842;2022-07-25T12:35:11;3.72;;;3.13;;
14292;SDS011;62290;59.420;17.842;2022-07-25T12:37:40;6.35;;;3.40;;
14292;SDS011;62290;59.420;17.842;2022-07-25T12:40:12;3.67;;;3.38;;
14292;SDS011;62290;59.420;17.842;2022-07-25T12:42:40;4.00;;;3.40;;
14292;SDS011;62290;59.420;17.842;2022-07-25T12:45:09;6.50;;;3.00;;
14292;SDS011;62290;59.420;17.842;2022-07-25T12:47:38;4.68;;;3.10;;
14292;SDS011;62290;59.420;17.842;2022-07-25T12:50:06;3.50;;;3.20;;
14292;SDS011;62290;59.420;17.842;2022-07-25T12:52:35;4.63;;;2.85;;
14292;SDS011;62290;59.420;17.842;2022-07-25T12:55:04;3.72;;;3.30;;
14292;SDS011;62290;59.420;17.842;2022-07-25T12:57:35;4.85;;;3.22;;
14292;SDS011;62290;59.420;17.842;2022-07-25T13:00:04;5.70;;;3.10;;
14292;SDS011;62290;59.420;17.842;2022-07-25T13:02:35;4.68;;;3.28;;
14292;SDS011;62290;59.420;17.842;2022-07-25T13:05:04;6.10;;;3.65;;
14292;SDS011;62290;59.420;17.842;2022-07-25T13:07:33;3.90;;;3.50;;
14292;SDS011;62290;59.420;17.842;2022-07-25T13:10:02;3.78;;;3.03;;
14292;SDS011;62290;59.420;17.842;2022-07-25T13:12:31;4.18;;;3.40;;
14292;SDS011;62290;59.420;17.842;2022-07-25T13:15:01;2.92;;;2.72;;
14292;SDS011;62290;59.420;17.842;2022-07-25T13:17:30;3.40;;;3.10;;
14292;SDS011;62290;59.420;17.842;2022-07-25T13:19:58;3.63;;;3.25;;
14292;SDS011;62290;59.420;17.842;2022-07-25T13:22:26;3.60;;;2.90;;
14292;SDS011;62290;59.420;17.842;2022-07-25T13:24:54;4.13;;;3.30;;
14292;SDS011;62290;59.420;17.842;2022-07-25T13:27:22;3.17;;;2.88;;
14292;SDS011;62290;59.420;17.842;2022-07-25T13:29:50;3.92;;;3.33;;
14292;SDS011;62290;59.420;17.842;2022-07-25T13:32:22;5.35;;;3.30;;
14292;SDS011;62290;59.420;17.842;2022-07-25T13:34:51;3.40;;;3.03;;
14292;SDS011;62290;59.420;17.842;2022-07-25T13:37:19;5.43;;;3.33;;
14292;SDS011;62290;59.420;17.842;2022-07-25T13:39:47;3.90;;;3.50;;
14292;SDS011;62290;59.420;17.842;2022-07-25T13:42:15;5.63;;;3.25;;
14292;SDS011;62290;59.420;17.842;2022-07-25T13:44:44;4.30;;;3.20;;
14292;SDS011;62290;59.420;17.842;2022-07-25T13:47:12;4.97;;;3.33;;
14292;SDS011;62290;59.420;17.842;2022-07-25T13:49:41;4.13;;;3.35;;
14292;SDS011;62290;59.420;17.842;2022-07-25T13:52:09;4.70;;;2.90;;
14292;SDS011;62290;59.420;17.842;2022-07-25T13:54:37;3.88;;;3.10;;
14292;SDS011;62290;59.420;17.842;2022-07-25T13:57:05;4.78;;;3.40;;
14292;SDS011;62290;59.420;17.842;2022-07-25T13:59:34;4.80;;;3.38;;
14292;SDS011;62290;59.420;17.842;2022-07-25T14:02:02;3.55;;;3.22;;
14292;SDS011;62290;59.420;17.842;2022-07-25T14:04:31;4.10;;;2.97;;
14292;SDS011;62290;59.420;17.842;2022-07-25T14:07:00;5.45;;;3.20;;
14292;SDS011;62290;59.420;17.842;2022-07-25T14:09:28;3.65;;;3.25;;
14292;SDS011;62290;59.420;17.842;2022-07-25T14:11:56;4.40;;;3.35;;
14292;SDS011;62290;59.420;17.842;2022-07-25T14:14:24;4.40;;;3.08;;
14292;SDS011;62290;59.420;17.842;2022-07-25T14:16:52;3.67;;;3.05;;
14292;SDS011;62290;59.420;17.842;2022-07-25T14:19:21;3.35;;;3.05;;
14292;SDS011;62290;59.420;17.842;2022-07-25T14:21:49;5.05;;;2.70;;
14292;SDS011;62290;59.420;17.842;2022-07-25T14:24:19;4.10;;;2.80;;
14292;SDS011;62290;59.420;17.842;2022-07-25T14:26:47;10.15;;;3.83;;
14292;SDS011;62290;59.420;17.842;2022-07-25T14:29:15;6.30;;;3.10;;
14292;SDS011;62290;59.420;17.842;2022-07-25T14:31:43;9.45;;;3.25;;
14292;SDS011;62290;59.420;17.842;2022-07-25T14:34:12;27.75;;;3.85;;
14292;SDS011;62290;59.420;17.842;2022-07-25T14:36:40;9.27;;;4.18;;
14292;SDS011;62290;59.420;17.842;2022-07-25T14:39:09;6.28;;;2.80;;
14292;SDS011;62290;59.420;17.842;2022-07-25T14:41:39;6.93;;;3.03;;
14292;SDS011;62290;59.420;17.842;2022-07-25T14:44:07;5.20;;;2.60;;
14292;SDS011;62290;59.420;17.842;2022-07-25T14:46:36;3.22;;;2.85;;
14292;SDS011;62290;59.420;17.842;2022-07-25T14:49:04;7.47;;;2.92;;
14292;SDS011;62290;59.420;17.842;2022-07-25T14:51:34;5.07;;;2.90;;